LUKK/KIV METAR and TAF weather

Enter ICAO airport designator
Station Type Date Time Source
LUKK METAR 2018/12/13 22:30 UTC NOAA

LUKK 132230Z 28009KT 2500 SN OVC020 00/M00 Q1017 R26/690399 NOSIG


Station Type Date Time Source
LUKK Decoded METAR 2018/12/13 22:30 UTC NOAA

Chisinau International Airport, Moldova (LUKK) 46-55-40N 028-55-51E
Dec 13, 2018 - 05:30 PM EST / 2018.12.13 2230 UTC
Wind: from the W (280 degrees) at 10 MPH (9 KT):0
Visibility: 1 mile(s):0
Sky conditions: overcast
Weather: snow
Temperature: 32 F (0 C)
Windchill: 23 F (-5 C):1
Dew Point: 32 F (0 C)
Relative Humidity: 100%
Pressure (altimeter): 30.03 in. Hg (1017 hPa)
ob: LUKK 132230Z 28009KT 2500 SN OVC020 00/M00 Q1017 R26/690399 NOSIG
cycle: 22

Station Type Date Time Source
LUKK TAF 2018/12/13 18:30 UTC NOAA

TAF TAF LUKK 131720Z 1318/1418 28009KT 5000 SN BR BKN015
TEMPO 1318/1406 2400 BKN007
BECMG 1406/1408 9999 NSW


Example: see airport list